sensor_id;sensor_type;location;lat;lon;timestamp;P1;durP1;ratioP1;P2;durP2;ratioP2
5704;SDS011;2877;48.238;11.160;2022-11-20T00:01:40;3.30;;;2.50;;
5704;SDS011;2877;48.238;11.160;2022-11-20T00:04:06;2.63;;;2.43;;
5704;SDS011;2877;48.238;11.160;2022-11-20T00:06:33;2.27;;;2.17;;
5704;SDS011;2877;48.238;11.160;2022-11-20T00:08:59;3.13;;;2.73;;
5704;SDS011;2877;48.238;11.160;2022-11-20T00:11:26;2.40;;;2.20;;
5704;SDS011;2877;48.238;11.160;2022-11-20T00:13:54;3.00;;;2.57;;
5704;SDS011;2877;48.238;11.160;2022-11-20T00:16:23;2.47;;;2.27;;
5704;SDS011;2877;48.238;11.160;2022-11-20T00:18:50;3.40;;;2.63;;
5704;SDS011;2877;48.238;11.160;2022-11-20T00:21:23;5.20;;;2.73;;
5704;SDS011;2877;48.238;11.160;2022-11-20T00:23:51;2.83;;;2.63;;
5704;SDS011;2877;48.238;11.160;2022-11-20T00:26:18;2.50;;;2.33;;
5704;SDS011;2877;48.238;11.160;2022-11-20T00:28:49;2.70;;;2.50;;
5704;SDS011;2877;48.238;11.160;2022-11-20T00:31:16;2.70;;;2.50;;
5704;SDS011;2877;48.238;11.160;2022-11-20T00:33:42;4.33;;;2.60;;
5704;SDS011;2877;48.238;11.160;2022-11-20T00:36:12;4.20;;;2.87;;
5704;SDS011;2877;48.238;11.160;2022-11-20T00:38:46;2.70;;;2.50;;
5704;SDS011;2877;48.238;11.160;2022-11-20T00:41:13;3.33;;;3.03;;
5704;SDS011;2877;48.238;11.160;2022-11-20T00:43:39;3.40;;;3.10;;
5704;SDS011;2877;48.238;11.160;2022-11-20T00:46:09;9.50;;;3.33;;
5704;SDS011;2877;48.238;11.160;2022-11-20T00:48:40;3.07;;;2.77;;
5704;SDS011;2877;48.238;11.160;2022-11-20T00:51:06;3.70;;;3.10;;
5704;SDS011;2877;48.238;11.160;2022-11-20T00:53:31;3.20;;;2.90;;
5704;SDS011;2877;48.238;11.160;2022-11-20T00:55:58;3.47;;;3.17;;
5704;SDS011;2877;48.238;11.160;2022-11-20T00:58:28;2.83;;;2.63;;
5704;SDS011;2877;48.238;11.160;2022-11-20T01:01:03;3.17;;;2.93;;
5704;SDS011;2877;48.238;11.160;2022-11-20T01:03:34;3.00;;;2.80;;
5704;SDS011;2877;48.238;11.160;2022-11-20T01:06:01;3.30;;;3.00;;
5704;SDS011;2877;48.238;11.160;2022-11-20T01:08:29;3.40;;;3.10;;
5704;SDS011;2877;48.238;11.160;2022-11-20T01:11:02;3.20;;;2.90;;
5704;SDS011;2877;48.238;11.160;2022-11-20T01:13:30;5.63;;;3.07;;
5704;SDS011;2877;48.238;11.160;2022-11-20T01:16:03;3.87;;;2.90;;
5704;SDS011;2877;48.238;11.160;2022-11-20T01:18:31;5.10;;;2.70;;
5704;SDS011;2877;48.238;11.160;2022-11-20T01:21:08;2.80;;;2.60;;
5704;SDS011;2877;48.238;11.160;2022-11-20T01:23:40;3.03;;;2.63;;
5704;SDS011;2877;48.238;11.160;2022-11-20T01:26:07;3.50;;;3.03;;
5704;SDS011;2877;48.238;11.160;2022-11-20T01:28:35;3.40;;;3.10;;
5704;SDS011;2877;48.238;11.160;2022-11-20T01:31:02;3.40;;;3.10;;
5704;SDS011;2877;48.238;11.160;2022-11-20T01:33:36;3.90;;;3.50;;
5704;SDS011;2877;48.238;11.160;2022-11-20T01:36:03;3.20;;;2.90;;
5704;SDS011;2877;48.238;11.160;2022-11-20T01:38:30;4.00;;;3.37;;
5704;SDS011;2877;48.238;11.160;2022-11-20T01:40:55;5.83;;;2.90;;
5704;SDS011;2877;48.238;11.160;2022-11-20T01:43:21;4.73;;;2.90;;
5704;SDS011;2877;48.238;11.160;2022-11-20T01:48:50;3.77;;;3.10;;
5704;SDS011;2877;48.238;11.160;2022-11-20T01:51:39;5.17;;;3.30;;
5704;SDS011;2877;48.238;11.160;2022-11-20T01:54:13;5.23;;;3.30;;
5704;SDS011;2877;48.238;11.160;2022-11-20T01:56:44;3.67;;;3.27;;
5704;SDS011;2877;48.238;11.160;2022-11-20T01:59:12;4.00;;;3.57;;
5704;SDS011;2877;48.238;11.160;2022-11-20T02:01:40;4.00;;;3.60;;
5704;SDS011;2877;48.238;11.160;2022-11-20T02:04:06;5.07;;;4.20;;
5704;SDS011;2877;48.238;11.160;2022-11-20T02:06:39;3.63;;;3.33;;
5704;SDS011;2877;48.238;11.160;2022-11-20T02:09:26;3.70;;;3.40;;
5704;SDS011;2877;48.238;11.160;2022-11-20T02:11:53;3.30;;;3.07;;
5704;SDS011;2877;48.238;11.160;2022-11-20T02:14:19;4.00;;;3.60;;
5704;SDS011;2877;48.238;11.160;2022-11-20T02:16:46;3.93;;;3.37;;
5704;SDS011;2877;48.238;11.160;2022-11-20T02:19:16;4.17;;;3.77;;
5704;SDS011;2877;48.238;11.160;2022-11-20T02:24:27;4.77;;;3.40;;
5704;SDS011;2877;48.238;11.160;2022-11-20T02:26:57;4.00;;;3.60;;
5704;SDS011;2877;48.238;11.160;2022-11-20T02:29:39;4.57;;;3.90;;
5704;SDS011;2877;48.238;11.160;2022-11-20T02:32:18;4.30;;;3.40;;
5704;SDS011;2877;48.238;11.160;2022-11-20T02:34:49;3.97;;;3.57;;
5704;SDS011;2877;48.238;11.160;2022-11-20T02:37:14;3.50;;;3.20;;
5704;SDS011;2877;48.238;11.160;2022-11-20T02:39:41;5.23;;;3.47;;
5704;SDS011;2877;48.238;11.160;2022-11-20T02:42:09;5.27;;;3.83;;
5704;SDS011;2877;48.238;11.160;2022-11-20T02:44:34;3.63;;;3.20;;
5704;SDS011;2877;48.238;11.160;2022-11-20T02:47:00;4.43;;;4.00;;
5704;SDS011;2877;48.238;11.160;2022-11-20T02:49:26;4.83;;;3.97;;
5704;SDS011;2877;48.238;11.160;2022-11-20T02:51:51;4.07;;;3.67;;
5704;SDS011;2877;48.238;11.160;2022-11-20T02:54:17;9.27;;;3.97;;
5704;SDS011;2877;48.238;11.160;2022-11-20T02:56:42;4.60;;;3.37;;
5704;SDS011;2877;48.238;11.160;2022-11-20T02:59:08;3.57;;;3.27;;
5704;SDS011;2877;48.238;11.160;2022-11-20T03:01:34;4.20;;;3.30;;
5704;SDS011;2877;48.238;11.160;2022-11-20T03:04:00;4.97;;;3.30;;
5704;SDS011;2877;48.238;11.160;2022-11-20T03:06:26;4.20;;;3.80;;
5704;SDS011;2877;48.238;11.160;2022-11-20T03:08:52;3.67;;;3.37;;
5704;SDS011;2877;48.238;11.160;2022-11-20T03:11:17;7.23;;;3.10;;
5704;SDS011;2877;48.238;11.160;2022-11-20T03:13:43;4.40;;;3.80;;
5704;SDS011;2877;48.238;11.160;2022-11-20T03:16:12;3.50;;;3.20;;
5704;SDS011;2877;48.238;11.160;2022-11-20T03:18:40;4.87;;;3.73;;
5704;SDS011;2877;48.238;11.160;2022-11-20T03:21:06;4.53;;;3.80;;
5704;SDS011;2877;48.238;11.160;2022-11-20T03:23:33;3.70;;;3.40;;
5704;SDS011;2877;48.238;11.160;2022-11-20T03:28:42;3.80;;;3.50;;
5704;SDS011;2877;48.238;11.160;2022-11-20T03:31:13;3.57;;;3.03;;
5704;SDS011;2877;48.238;11.160;2022-11-20T03:33:40;5.43;;;3.80;;
5704;SDS011;2877;48.238;11.160;2022-11-20T03:36:13;3.17;;;2.90;;
5704;SDS011;2877;48.238;11.160;2022-11-20T03:38:40;3.53;;;3.23;;
5704;SDS011;2877;48.238;11.160;2022-11-20T03:41:10;3.33;;;3.03;;
5704;SDS011;2877;48.238;11.160;2022-11-20T03:43:37;4.07;;;3.63;;
5704;SDS011;2877;48.238;11.160;2022-11-20T03:46:03;3.40;;;3.10;;
5704;SDS011;2877;48.238;11.160;2022-11-20T03:48:30;3.63;;;3.30;;
5704;SDS011;2877;48.238;11.160;2022-11-20T03:51:08;5.73;;;3.37;;
5704;SDS011;2877;48.238;11.160;2022-11-20T03:53:39;4.03;;;3.43;;
5704;SDS011;2877;48.238;11.160;2022-11-20T03:56:05;4.10;;;3.27;;
5704;SDS011;2877;48.238;11.160;2022-11-20T03:58:32;3.50;;;3.20;;
5704;SDS011;2877;48.238;11.160;2022-11-20T04:01:07;3.37;;;3.07;;
5704;SDS011;2877;48.238;11.160;2022-11-20T04:03:37;4.00;;;3.60;;
5704;SDS011;2877;48.238;11.160;2022-11-20T04:06:04;3.77;;;3.37;;
5704;SDS011;2877;48.238;11.160;2022-11-20T04:08:34;3.63;;;3.33;;
5704;SDS011;2877;48.238;11.160;2022-11-20T04:11:13;3.10;;;2.80;;
5704;SDS011;2877;48.238;11.160;2022-11-20T04:13:40;4.70;;;3.10;;
5704;SDS011;2877;48.238;11.160;2022-11-20T04:16:07;3.60;;;3.30;;
5704;SDS011;2877;48.238;11.160;2022-11-20T04:18:34;3.53;;;3.23;;
5704;SDS011;2877;48.238;11.160;2022-11-20T04:21:01;3.53;;;3.23;;
5704;SDS011;2877;48.238;11.160;2022-11-20T04:23:27;3.97;;;3.43;;
5704;SDS011;2877;48.238;11.160;2022-11-20T04:25:53;2.97;;;2.77;;
5704;SDS011;2877;48.238;11.160;2022-11-20T04:28:19;3.63;;;3.27;;
5704;SDS011;2877;48.238;11.160;2022-11-20T04:30:44;3.60;;;3.30;;
5704;SDS011;2877;48.238;11.160;2022-11-20T04:33:10;3.43;;;3.13;;
5704;SDS011;2877;48.238;11.160;2022-11-20T04:35:36;4.50;;;3.20;;
5704;SDS011;2877;48.238;11.160;2022-11-20T04:38:03;3.57;;;3.27;;
5704;SDS011;2877;48.238;11.160;2022-11-20T04:40:29;3.50;;;3.17;;
5704;SDS011;2877;48.238;11.160;2022-11-20T04:42:54;5.10;;;3.37;;
5704;SDS011;2877;48.238;11.160;2022-11-20T04:45:20;3.97;;;3.27;;
5704;SDS011;2877;48.238;11.160;2022-11-20T04:47:46;5.80;;;3.10;;
5704;SDS011;2877;48.238;11.160;2022-11-20T04:50:12;3.50;;;3.10;;
5704;SDS011;2877;48.238;11.160;2022-11-20T04:52:37;2.80;;;2.60;;
5704;SDS011;2877;48.238;11.160;2022-11-20T04:55:03;3.60;;;3.30;;
5704;SDS011;2877;48.238;11.160;2022-11-20T04:57:29;3.50;;;3.20;;
5704;SDS011;2877;48.238;11.160;2022-11-20T04:59:55;4.80;;;3.00;;
5704;SDS011;2877;48.238;11.160;2022-11-20T05:02:20;4.83;;;3.30;;
5704;SDS011;2877;48.238;11.160;2022-11-20T05:04:46;6.20;;;3.17;;
5704;SDS011;2877;48.238;11.160;2022-11-20T05:07:11;3.10;;;2.83;;
5704;SDS011;2877;48.238;11.160;2022-11-20T05:09:37;3.07;;;2.80;;
5704;SDS011;2877;48.238;11.160;2022-11-20T05:12:03;3.10;;;2.90;;
5704;SDS011;2877;48.238;11.160;2022-11-20T05:14:28;3.37;;;3.10;;
5704;SDS011;2877;48.238;11.160;2022-11-20T05:16:54;3.00;;;2.70;;
5704;SDS011;2877;48.238;11.160;2022-11-20T05:19:19;2.70;;;2.50;;
5704;SDS011;2877;48.238;11.160;2022-11-20T05:21:45;3.43;;;2.50;;
5704;SDS011;2877;48.238;11.160;2022-11-20T05:24:11;3.30;;;2.50;;
5704;SDS011;2877;48.238;11.160;2022-11-20T05:26:36;3.23;;;2.93;;
5704;SDS011;2877;48.238;11.160;2022-11-20T05:29:02;3.63;;;3.33;;
5704;SDS011;2877;48.238;11.160;2022-11-20T05:31:27;4.37;;;3.27;;
5704;SDS011;2877;48.238;11.160;2022-11-20T05:33:54;3.47;;;3.17;;
5704;SDS011;2877;48.238;11.160;2022-11-20T05:36:20;2.80;;;2.60;;
5704;SDS011;2877;48.238;11.160;2022-11-20T05:38:46;5.43;;;2.97;;
5704;SDS011;2877;48.238;11.160;2022-11-20T05:41:13;3.07;;;2.77;;
5704;SDS011;2877;48.238;11.160;2022-11-20T05:43:40;3.40;;;3.00;;
5704;SDS011;2877;48.238;11.160;2022-11-20T05:46:07;3.60;;;2.70;;
5704;SDS011;2877;48.238;11.160;2022-11-20T05:48:34;2.70;;;2.50;;
5704;SDS011;2877;48.238;11.160;2022-11-20T05:51:01;7.97;;;3.23;;
5704;SDS011;2877;48.238;11.160;2022-11-20T05:53:27;4.17;;;3.03;;
5704;SDS011;2877;48.238;11.160;2022-11-20T05:56:00;3.93;;;3.50;;
5704;SDS011;2877;48.238;11.160;2022-11-20T05:58:27;2.80;;;2.60;;
5704;SDS011;2877;48.238;11.160;2022-11-20T06:00:54;3.30;;;3.00;;
5704;SDS011;2877;48.238;11.160;2022-11-20T06:03:27;2.77;;;2.57;;
5704;SDS011;2877;48.238;11.160;2022-11-20T06:05:52;3.00;;;2.80;;
5704;SDS011;2877;48.238;11.160;2022-11-20T06:08:18;2.53;;;2.33;;
5704;SDS011;2877;48.238;11.160;2022-11-20T06:10:43;3.30;;;3.00;;
5704;SDS011;2877;48.238;11.160;2022-11-20T06:13:09;3.87;;;3.00;;
5704;SDS011;2877;48.238;11.160;2022-11-20T06:15:34;4.07;;;2.70;;
5704;SDS011;2877;48.238;11.160;2022-11-20T06:18:00;3.17;;;2.90;;
5704;SDS011;2877;48.238;11.160;2022-11-20T06:20:25;2.63;;;2.43;;
5704;SDS011;2877;48.238;11.160;2022-11-20T06:22:51;2.90;;;2.70;;
5704;SDS011;2877;48.238;11.160;2022-11-20T06:25:17;3.13;;;2.80;;
5704;SDS011;2877;48.238;11.160;2022-11-20T06:27:42;2.40;;;2.20;;
5704;SDS011;2877;48.238;11.160;2022-11-20T06:30:08;3.13;;;2.83;;
5704;SDS011;2877;48.238;11.160;2022-11-20T06:32:34;3.53;;;3.13;;
5704;SDS011;2877;48.238;11.160;2022-11-20T06:35:00;2.63;;;2.40;;
5704;SDS011;2877;48.238;11.160;2022-11-20T06:37:25;3.53;;;2.73;;
5704;SDS011;2877;48.238;11.160;2022-11-20T06:39:51;3.40;;;2.67;;
5704;SDS011;2877;48.238;11.160;2022-11-20T06:42:16;2.57;;;2.37;;
5704;SDS011;2877;48.238;11.160;2022-11-20T06:44:42;2.90;;;2.70;;
5704;SDS011;2877;48.238;11.160;2022-11-20T06:47:07;2.13;;;2.00;;
5704;SDS011;2877;48.238;11.160;2022-11-20T06:49:33;2.33;;;2.13;;
5704;SDS011;2877;48.238;11.160;2022-11-20T06:51:59;2.70;;;2.50;;
5704;SDS011;2877;48.238;11.160;2022-11-20T06:54:24;2.90;;;2.60;;
5704;SDS011;2877;48.238;11.160;2022-11-20T06:56:50;2.60;;;2.40;;
5704;SDS011;2877;48.238;11.160;2022-11-20T06:59:16;3.63;;;2.43;;
5704;SDS011;2877;48.238;11.160;2022-11-20T07:01:41;3.30;;;2.80;;
5704;SDS011;2877;48.238;11.160;2022-11-20T07:04:07;2.50;;;2.30;;
5704;SDS011;2877;48.238;11.160;2022-11-20T07:06:32;5.47;;;3.90;;
5704;SDS011;2877;48.238;11.160;2022-11-20T07:08:58;3.13;;;2.93;;
5704;SDS011;2877;48.238;11.160;2022-11-20T07:11:23;3.33;;;3.03;;
5704;SDS011;2877;48.238;11.160;2022-11-20T07:13:49;4.17;;;3.37;;
5704;SDS011;2877;48.238;11.160;2022-11-20T07:16:15;3.23;;;2.83;;
5704;SDS011;2877;48.238;11.160;2022-11-20T07:18:41;2.90;;;2.63;;
5704;SDS011;2877;48.238;11.160;2022-11-20T07:21:07;2.70;;;2.50;;
5704;SDS011;2877;48.238;11.160;2022-11-20T07:23:34;3.50;;;3.20;;
5704;SDS011;2877;48.238;11.160;2022-11-20T07:26:04;3.00;;;2.70;;
5704;SDS011;2877;48.238;11.160;2022-11-20T07:28:31;3.30;;;2.97;;
5704;SDS011;2877;48.238;11.160;2022-11-20T07:30:57;3.70;;;2.60;;
5704;SDS011;2877;48.238;11.160;2022-11-20T07:33:23;3.23;;;2.67;;
5704;SDS011;2877;48.238;11.160;2022-11-20T07:35:48;3.03;;;2.73;;
5704;SDS011;2877;48.238;11.160;2022-11-20T07:38:14;2.90;;;2.63;;
5704;SDS011;2877;48.238;11.160;2022-11-20T07:40:39;3.03;;;2.83;;
5704;SDS011;2877;48.238;11.160;2022-11-20T07:43:05;3.17;;;2.93;;
5704;SDS011;2877;48.238;11.160;2022-11-20T07:45:31;2.90;;;2.70;;
5704;SDS011;2877;48.238;11.160;2022-11-20T07:47:57;2.70;;;2.50;;
5704;SDS011;2877;48.238;11.160;2022-11-20T07:50:22;2.40;;;2.20;;
5704;SDS011;2877;48.238;11.160;2022-11-20T07:52:48;3.00;;;2.70;;
5704;SDS011;2877;48.238;11.160;2022-11-20T07:55:13;2.63;;;2.43;;
5704;SDS011;2877;48.238;11.160;2022-11-20T07:57:39;2.57;;;2.37;;
5704;SDS011;2877;48.238;11.160;2022-11-20T08:00:06;2.80;;;2.60;;
5704;SDS011;2877;48.238;11.160;2022-11-20T08:02:39;3.00;;;2.70;;
5704;SDS011;2877;48.238;11.160;2022-11-20T08:05:06;3.60;;;3.10;;
5704;SDS011;2877;48.238;11.160;2022-11-20T08:07:39;3.10;;;2.80;;
5704;SDS011;2877;48.238;11.160;2022-11-20T08:10:06;8.33;;;2.90;;
5704;SDS011;2877;48.238;11.160;2022-11-20T08:12:33;4.77;;;3.10;;
5704;SDS011;2877;48.238;11.160;2022-11-20T08:15:17;2.83;;;2.63;;
5704;SDS011;2877;48.238;11.160;2022-11-20T08:17:43;4.13;;;3.30;;
5704;SDS011;2877;48.238;11.160;2022-11-20T08:20:09;4.10;;;3.57;;
5704;SDS011;2877;48.238;11.160;2022-11-20T08:22:34;4.23;;;3.83;;
5704;SDS011;2877;48.238;11.160;2022-11-20T08:25:00;4.10;;;3.20;;
5704;SDS011;2877;48.238;11.160;2022-11-20T08:27:26;3.40;;;3.10;;
5704;SDS011;2877;48.238;11.160;2022-11-20T08:29:51;3.60;;;2.80;;
5704;SDS011;2877;48.238;11.160;2022-11-20T08:32:17;2.77;;;2.57;;
5704;SDS011;2877;48.238;11.160;2022-11-20T08:34:43;5.27;;;4.00;;
5704;SDS011;2877;48.238;11.160;2022-11-20T08:37:08;4.20;;;3.80;;
5704;SDS011;2877;48.238;11.160;2022-11-20T08:39:34;3.80;;;3.40;;
5704;SDS011;2877;48.238;11.160;2022-11-20T08:41:59;3.17;;;2.97;;
5704;SDS011;2877;48.238;11.160;2022-11-20T08:44:25;2.53;;;2.33;;
5704;SDS011;2877;48.238;11.160;2022-11-20T08:46:50;3.10;;;2.77;;
5704;SDS011;2877;48.238;11.160;2022-11-20T08:49:16;3.00;;;2.80;;
5704;SDS011;2877;48.238;11.160;2022-11-20T08:51:42;3.23;;;2.93;;
5704;SDS011;2877;48.238;11.160;2022-11-20T08:54:08;3.47;;;2.90;;
5704;SDS011;2877;48.238;11.160;2022-11-20T08:56:34;41.63;;;16.07;;
5704;SDS011;2877;48.238;11.160;2022-11-20T08:59:00;10.30;;;5.57;;
5704;SDS011;2877;48.238;11.160;2022-11-20T09:01:26;3.50;;;3.20;;
5704;SDS011;2877;48.238;11.160;2022-11-20T09:03:52;2.80;;;2.60;;
5704;SDS011;2877;48.238;11.160;2022-11-20T09:06:20;2.67;;;2.47;;
5704;SDS011;2877;48.238;11.160;2022-11-20T09:08:46;2.47;;;2.27;;
5704;SDS011;2877;48.238;11.160;2022-11-20T09:11:11;13.60;;;6.83;;
5704;SDS011;2877;48.238;11.160;2022-11-20T09:13:37;5.90;;;3.70;;
5704;SDS011;2877;48.238;11.160;2022-11-20T09:16:04;3.23;;;2.60;;
5704;SDS011;2877;48.238;11.160;2022-11-20T09:18:32;3.17;;;2.90;;
5704;SDS011;2877;48.238;11.160;2022-11-20T09:20:59;3.10;;;2.57;;
5704;SDS011;2877;48.238;11.160;2022-11-20T09:23:25;2.63;;;2.20;;
5704;SDS011;2877;48.238;11.160;2022-11-20T09:25:52;2.50;;;2.30;;
5704;SDS011;2877;48.238;11.160;2022-11-20T09:28:20;3.60;;;3.23;;
5704;SDS011;2877;48.238;11.160;2022-11-20T09:30:46;2.60;;;2.40;;
5704;SDS011;2877;48.238;11.160;2022-11-20T09:33:12;3.67;;;3.13;;
5704;SDS011;2877;48.238;11.160;2022-11-20T09:35:37;2.47;;;2.27;;
5704;SDS011;2877;48.238;11.160;2022-11-20T09:38:06;2.50;;;2.30;;
5704;SDS011;2877;48.238;11.160;2022-11-20T09:40:32;2.60;;;2.40;;
5704;SDS011;2877;48.238;11.160;2022-11-20T09:54:16;1.90;;;1.80;;
5704;SDS011;2877;48.238;11.160;2022-11-20T09:56:54;2.20;;;2.00;;
5704;SDS011;2877;48.238;11.160;2022-11-20T09:59:29;1.80;;;1.70;;
5704;SDS011;2877;48.238;11.160;2022-11-20T10:02:08;1.77;;;1.67;;
5704;SDS011;2877;48.238;11.160;2022-11-20T10:04:43;1.87;;;1.77;;
5704;SDS011;2877;48.238;11.160;2022-11-20T10:07:19;3.43;;;1.70;;
5704;SDS011;2877;48.238;11.160;2022-11-20T10:09:53;1.60;;;1.50;;
5704;SDS011;2877;48.238;11.160;2022-11-20T10:12:24;2.00;;;1.90;;
5704;SDS011;2877;48.238;11.160;2022-11-20T10:18:24;1.90;;;1.80;;
5704;SDS011;2877;48.238;11.160;2022-11-20T10:23:40;1.40;;;1.40;;
5704;SDS011;2877;48.238;11.160;2022-11-20T10:29:29;1.93;;;1.43;;
5704;SDS011;2877;48.238;11.160;2022-11-20T10:32:02;3.93;;;1.57;;
5704;SDS011;2877;48.238;11.160;2022-11-20T10:34:51;3.10;;;1.87;;
5704;SDS011;2877;48.238;11.160;2022-11-20T10:37:23;2.10;;;1.90;;
5704;SDS011;2877;48.238;11.160;2022-11-20T10:42:52;1.80;;;1.70;;
5704;SDS011;2877;48.238;11.160;2022-11-20T10:50:56;1.70;;;1.60;;
5704;SDS011;2877;48.238;11.160;2022-11-20T10:56:19;1.80;;;1.20;;
5704;SDS011;2877;48.238;11.160;2022-11-20T11:01:30;2.10;;;1.97;;
5704;SDS011;2877;48.238;11.160;2022-11-20T11:03:55;1.97;;;1.77;;
5704;SDS011;2877;48.238;11.160;2022-11-20T11:06:29;2.00;;;1.90;;
5704;SDS011;2877;48.238;11.160;2022-11-20T11:08:58;1.70;;;1.60;;
5704;SDS011;2877;48.238;11.160;2022-11-20T11:11:29;2.17;;;1.97;;
5704;SDS011;2877;48.238;11.160;2022-11-20T11:14:07;1.80;;;1.70;;
5704;SDS011;2877;48.238;11.160;2022-11-20T11:16:33;1.83;;;1.73;;
5704;SDS011;2877;48.238;11.160;2022-11-20T11:19:05;1.63;;;1.53;;
5704;SDS011;2877;48.238;11.160;2022-11-20T11:21:36;1.20;;;1.13;;
5704;SDS011;2877;48.238;11.160;2022-11-20T11:24:14;1.50;;;1.20;;
5704;SDS011;2877;48.238;11.160;2022-11-20T11:26:54;1.63;;;1.53;;
5704;SDS011;2877;48.238;11.160;2022-11-20T11:29:29;2.40;;;2.20;;
5704;SDS011;2877;48.238;11.160;2022-11-20T11:34:36;1.73;;;1.10;;
5704;SDS011;2877;48.238;11.160;2022-11-20T11:37:02;1.20;;;1.20;;
5704;SDS011;2877;48.238;11.160;2022-11-20T11:39:29;3.03;;;1.10;;
5704;SDS011;2877;48.238;11.160;2022-11-20T11:41:56;1.40;;;1.30;;
5704;SDS011;2877;48.238;11.160;2022-11-20T11:44:30;1.70;;;1.60;;
5704;SDS011;2877;48.238;11.160;2022-11-20T11:50:00;1.50;;;1.40;;
5704;SDS011;2877;48.238;11.160;2022-11-20T11:52:48;1.30;;;1.17;;
5704;SDS011;2877;48.238;11.160;2022-11-20T11:58:06;1.10;;;1.00;;
5704;SDS011;2877;48.238;11.160;2022-11-20T12:01:04;1.50;;;1.40;;
5704;SDS011;2877;48.238;11.160;2022-11-20T12:03:38;2.43;;;2.30;;
5704;SDS011;2877;48.238;11.160;2022-11-20T12:06:11;1.20;;;1.20;;
5704;SDS011;2877;48.238;11.160;2022-11-20T12:16:44;1.17;;;1.17;;
5704;SDS011;2877;48.238;11.160;2022-11-20T12:19:11;1.80;;;1.70;;
5704;SDS011;2877;48.238;11.160;2022-11-20T12:24:14;2.77;;;1.40;;
5704;SDS011;2877;48.238;11.160;2022-11-20T12:32:28;1.60;;;1.50;;
5704;SDS011;2877;48.238;11.160;2022-11-20T12:38:31;1.30;;;1.20;;
5704;SDS011;2877;48.238;11.160;2022-11-20T12:44:25;1.23;;;1.13;;
5704;SDS011;2877;48.238;11.160;2022-11-20T12:47:34;1.40;;;1.30;;
5704;SDS011;2877;48.238;11.160;2022-11-20T12:50:22;2.00;;;1.80;;
5704;SDS011;2877;48.238;11.160;2022-11-20T12:52:56;1.33;;;1.33;;
5704;SDS011;2877;48.238;11.160;2022-11-20T12:55:39;1.90;;;1.30;;
5704;SDS011;2877;48.238;11.160;2022-11-20T13:06:56;2.10;;;2.00;;
5704;SDS011;2877;48.238;11.160;2022-11-20T13:09:22;1.80;;;1.70;;
5704;SDS011;2877;48.238;11.160;2022-11-20T13:14:42;2.10;;;1.90;;
5704;SDS011;2877;48.238;11.160;2022-11-20T13:20:12;1.53;;;1.43;;
5704;SDS011;2877;48.238;11.160;2022-11-20T13:22:45;1.77;;;1.67;;
5704;SDS011;2877;48.238;11.160;2022-11-20T13:25:32;2.00;;;1.80;;
5704;SDS011;2877;48.238;11.160;2022-11-20T13:30:34;1.80;;;1.70;;
5704;SDS011;2877;48.238;11.160;2022-11-20T13:33:04;1.93;;;1.60;;
5704;SDS011;2877;48.238;11.160;2022-11-20T13:35:34;1.50;;;1.50;;
5704;SDS011;2877;48.238;11.160;2022-11-20T13:38:12;1.60;;;1.30;;
5704;SDS011;2877;48.238;11.160;2022-11-20T13:41:00;2.00;;;1.90;;
5704;SDS011;2877;48.238;11.160;2022-11-20T13:43:46;2.47;;;1.80;;
5704;SDS011;2877;48.238;11.160;2022-11-20T13:46:13;2.03;;;1.83;;
5704;SDS011;2877;48.238;11.160;2022-11-20T13:48:41;2.73;;;1.80;;
5704;SDS011;2877;48.238;11.160;2022-11-20T13:51:14;1.40;;;1.30;;
5704;SDS011;2877;48.238;11.160;2022-11-20T14:02:19;2.20;;;1.30;;
5704;SDS011;2877;48.238;11.160;2022-11-20T14:04:48;1.60;;;1.47;;
5704;SDS011;2877;48.238;11.160;2022-11-20T14:07:16;1.60;;;1.50;;
5704;SDS011;2877;48.238;11.160;2022-11-20T14:09:51;1.80;;;1.70;;
5704;SDS011;2877;48.238;11.160;2022-11-20T14:12:30;4.13;;;3.10;;
5704;SDS011;2877;48.238;11.160;2022-11-20T14:14:58;1.77;;;1.60;;
5704;SDS011;2877;48.238;11.160;2022-11-20T14:17:33;1.53;;;1.43;;
5704;SDS011;2877;48.238;11.160;2022-11-20T14:20:04;1.70;;;1.50;;
5704;SDS011;2877;48.238;11.160;2022-11-20T14:22:31;1.47;;;1.37;;
5704;SDS011;2877;48.238;11.160;2022-11-20T14:25:02;2.20;;;1.73;;
5704;SDS011;2877;48.238;11.160;2022-11-20T14:27:37;1.33;;;1.33;;
5704;SDS011;2877;48.238;11.160;2022-11-20T14:30:05;2.10;;;1.27;;
5704;SDS011;2877;48.238;11.160;2022-11-20T14:32:38;1.57;;;1.37;;
5704;SDS011;2877;48.238;11.160;2022-11-20T14:35:07;1.90;;;1.80;;
5704;SDS011;2877;48.238;11.160;2022-11-20T14:37:36;1.60;;;1.50;;
5704;SDS011;2877;48.238;11.160;2022-11-20T14:40:04;1.50;;;1.40;;
5704;SDS011;2877;48.238;11.160;2022-11-20T14:42:51;1.77;;;1.67;;
5704;SDS011;2877;48.238;11.160;2022-11-20T14:45:17;0.97;;;0.97;;
5704;SDS011;2877;48.238;11.160;2022-11-20T14:47:43;1.53;;;1.43;;
5704;SDS011;2877;48.238;11.160;2022-11-20T14:50:12;1.00;;;1.00;;
5704;SDS011;2877;48.238;11.160;2022-11-20T14:52:56;1.00;;;1.00;;
5704;SDS011;2877;48.238;11.160;2022-11-20T14:55:27;1.27;;;1.17;;
5704;SDS011;2877;48.238;11.160;2022-11-20T14:58:01;1.20;;;1.10;;
5704;SDS011;2877;48.238;11.160;2022-11-20T15:00:58;1.27;;;1.13;;
5704;SDS011;2877;48.238;11.160;2022-11-20T15:03:36;2.30;;;1.40;;
5704;SDS011;2877;48.238;11.160;2022-11-20T15:06:03;2.23;;;1.40;;
5704;SDS011;2877;48.238;11.160;2022-11-20T15:08:30;2.70;;;1.40;;
5704;SDS011;2877;48.238;11.160;2022-11-20T15:10:56;1.37;;;1.13;;
5704;SDS011;2877;48.238;11.160;2022-11-20T15:13:31;2.13;;;1.43;;
5704;SDS011;2877;48.238;11.160;2022-11-20T15:16:01;1.00;;;0.90;;
5704;SDS011;2877;48.238;11.160;2022-11-20T15:18:28;0.80;;;0.80;;
5704;SDS011;2877;48.238;11.160;2022-11-20T15:21:02;0.80;;;0.80;;
5704;SDS011;2877;48.238;11.160;2022-11-20T15:23:35;1.30;;;0.93;;
5704;SDS011;2877;48.238;11.160;2022-11-20T15:26:01;3.40;;;1.90;;
5704;SDS011;2877;48.238;11.160;2022-11-20T15:30:55;3.17;;;2.03;;
5704;SDS011;2877;48.238;11.160;2022-11-20T15:33:21;2.10;;;1.90;;
5704;SDS011;2877;48.238;11.160;2022-11-20T15:35:47;2.10;;;1.90;;
5704;SDS011;2877;48.238;11.160;2022-11-20T15:38:13;2.50;;;2.30;;
5704;SDS011;2877;48.238;11.160;2022-11-20T15:40:38;3.00;;;2.80;;
5704;SDS011;2877;48.238;11.160;2022-11-20T15:43:04;3.47;;;2.40;;
5704;SDS011;2877;48.238;11.160;2022-11-20T15:45:37;2.30;;;2.20;;
5704;SDS011;2877;48.238;11.160;2022-11-20T15:48:12;3.00;;;2.80;;
5704;SDS011;2877;48.238;11.160;2022-11-20T15:51:12;3.37;;;2.53;;
5704;SDS011;2877;48.238;11.160;2022-11-20T15:53:42;3.23;;;2.40;;
5704;SDS011;2877;48.238;11.160;2022-11-20T15:56:11;8.70;;;5.83;;
5704;SDS011;2877;48.238;11.160;2022-11-20T15:58:38;31.23;;;15.93;;
5704;SDS011;2877;48.238;11.160;2022-11-20T16:01:05;43.57;;;21.67;;
5704;SDS011;2877;48.238;11.160;2022-11-20T16:03:30;11.90;;;7.57;;
5704;SDS011;2877;48.238;11.160;2022-11-20T16:05:56;8.20;;;4.80;;
5704;SDS011;2877;48.238;11.160;2022-11-20T16:08:21;3.60;;;2.70;;
5704;SDS011;2877;48.238;11.160;2022-11-20T16:10:47;3.30;;;3.00;;
5704;SDS011;2877;48.238;11.160;2022-11-20T16:13:13;3.10;;;2.73;;
5704;SDS011;2877;48.238;11.160;2022-11-20T16:15:59;2.73;;;2.50;;
5704;SDS011;2877;48.238;11.160;2022-11-20T16:18:30;4.43;;;3.90;;
5704;SDS011;2877;48.238;11.160;2022-11-20T16:20:56;8.77;;;5.90;;
5704;SDS011;2877;48.238;11.160;2022-11-20T16:23:22;4.47;;;3.73;;
5704;SDS011;2877;48.238;11.160;2022-11-20T16:25:48;4.27;;;3.60;;
5704;SDS011;2877;48.238;11.160;2022-11-20T16:28:15;5.80;;;3.63;;
5704;SDS011;2877;48.238;11.160;2022-11-20T16:30:41;3.47;;;3.17;;
5704;SDS011;2877;48.238;11.160;2022-11-20T16:33:13;6.27;;;4.87;;
5704;SDS011;2877;48.238;11.160;2022-11-20T16:35:40;7.13;;;5.27;;
5704;SDS011;2877;48.238;11.160;2022-11-20T16:38:06;12.60;;;7.60;;
5704;SDS011;2877;48.238;11.160;2022-11-20T16:40:31;5.10;;;4.60;;
5704;SDS011;2877;48.238;11.160;2022-11-20T16:42:57;14.17;;;9.93;;
5704;SDS011;2877;48.238;11.160;2022-11-20T16:45:33;19.23;;;11.20;;
5704;SDS011;2877;48.238;11.160;2022-11-20T16:47:58;15.37;;;9.63;;
5704;SDS011;2877;48.238;11.160;2022-11-20T16:50:24;17.30;;;9.67;;
5704;SDS011;2877;48.238;11.160;2022-11-20T16:52:49;25.47;;;14.03;;
5704;SDS011;2877;48.238;11.160;2022-11-20T16:55:15;10.30;;;6.17;;